createdAt,value
2022-09-03T00:03:08.569Z,13.15
2022-09-03T00:06:23.057Z,13.14
2022-09-03T00:09:38.840Z,13.13
2022-09-03T00:12:53.375Z,13.11
2022-09-03T00:16:09.465Z,13.11
2022-09-03T00:19:26.647Z,13.07
2022-09-03T00:22:39.950Z,12.98
2022-09-03T00:25:57.259Z,12.89
2022-09-03T00:29:13.909Z,12.69
2022-09-03T00:32:30.399Z,12.54
2022-09-03T00:35:47.617Z,12.44
2022-09-03T00:38:59.721Z,12.46
2022-09-03T00:42:24.512Z,12.46
2022-09-03T00:45:43.240Z,12.39
2022-09-03T00:49:14.234Z,12.39
2022-09-03T00:52:35.845Z,12.41
2022-09-03T00:55:58.195Z,12.35
2022-09-03T00:59:21.348Z,12.28
2022-09-03T01:02:40.134Z,12.19
2022-09-03T01:06:03.490Z,12.25
2022-09-03T01:09:30.319Z,12.27
2022-09-03T01:12:49.461Z,12.29
2022-09-03T01:16:09.192Z,12.17
2022-09-03T01:19:35.746Z,12.16
2022-09-03T01:23:17.081Z,12.19
2022-09-03T01:26:44.747Z,12.19
2022-09-03T01:30:02.621Z,12.14
2022-09-03T01:33:20.323Z,12.18
2022-09-03T01:36:38.268Z,12.22
2022-09-03T01:39:59.725Z,12.18
2022-09-03T01:43:24.550Z,12.19
2022-09-03T01:46:41.581Z,12.13
2022-09-03T01:49:59.529Z,12.13
2022-09-03T01:53:20.613Z,12.12
2022-09-03T01:56:44.855Z,12.03
2022-09-03T02:00:02.316Z,12.05
2022-09-03T02:03:18.799Z,12.09
2022-09-03T02:06:31.962Z,12.02
2022-09-03T02:09:43.562Z,12.10
2022-09-03T02:13:01.086Z,12.00
2022-09-03T02:16:18.018Z,11.91
2022-09-03T02:19:28.388Z,11.85
2022-09-03T02:22:41.006Z,11.79
2022-09-03T02:25:59.307Z,11.75
2022-09-03T02:29:11.286Z,11.68
2022-09-03T02:32:23.004Z,11.66
2022-09-03T02:35:35.152Z,11.66
2022-09-03T02:38:50.188Z,11.59
2022-09-03T02:42:03.972Z,11.44
2022-09-03T02:45:26.447Z,11.42
2022-09-03T02:48:38.410Z,11.41
2022-09-03T02:51:50.987Z,11.35
2022-09-03T02:55:02.689Z,11.34
2022-09-03T02:58:14.465Z,11.23
2022-09-03T03:01:26.293Z,11.24
2022-09-03T03:04:39.548Z,11.20
2022-09-03T03:07:51.091Z,11.15
2022-09-03T03:11:04.434Z,11.07
2022-09-03T03:14:16.387Z,10.98
2022-09-03T03:17:28.831Z,11.02
2022-09-03T03:20:40.438Z,11.00
2022-09-03T03:23:53.172Z,10.96
2022-09-03T03:27:07.054Z,10.91
2022-09-03T03:30:21.004Z,10.90
2022-09-03T03:33:33.037Z,10.78
2022-09-03T03:36:44.779Z,10.73
2022-09-03T03:39:56.492Z,10.77
2022-09-03T03:43:08.303Z,10.79
2022-09-03T03:46:21.107Z,10.80
2022-09-03T03:49:33.257Z,10.74
2022-09-03T03:52:45.559Z,10.71
2022-09-03T03:56:05.209Z,10.72
2022-09-03T03:59:17.113Z,10.81
2022-09-03T04:05:33.664Z,10.89
2022-09-03T04:08:48.140Z,10.83
2022-09-03T04:12:02.449Z,10.81
2022-09-03T04:15:15.831Z,10.82
2022-09-03T04:18:27.325Z,10.87
2022-09-03T04:21:39.185Z,10.94
2022-09-03T04:24:50.773Z,11.04
2022-09-03T04:28:04.699Z,11.06
2022-09-03T04:31:21.865Z,11.14
2022-09-03T04:34:39.102Z,11.13
2022-09-03T04:38:02.635Z,11.16
2022-09-03T04:45:10.868Z,11.23
2022-09-03T04:48:43.296Z,11.29
2022-09-03T04:52:04.706Z,11.32
2022-09-03T04:55:25.479Z,11.38
2022-09-03T04:58:46.215Z,11.43
2022-09-03T05:02:00.757Z,11.46
2022-09-03T05:05:13.832Z,11.52
2022-09-03T05:08:26.696Z,11.60
2022-09-03T05:14:50.286Z,11.68
2022-09-03T05:18:11.562Z,11.78
2022-09-03T05:21:27.183Z,11.69
2022-09-03T05:24:40.371Z,11.73
2022-09-03T05:28:00.988Z,11.72
2022-09-03T05:31:19.611Z,11.80
2022-09-03T05:34:36.255Z,11.84
2022-09-03T05:37:53.512Z,11.97
2022-09-03T05:41:09.542Z,12.05
2022-09-03T05:44:23.302Z,12.06
2022-09-03T05:47:37.527Z,12.02
2022-09-03T05:50:52.830Z,12.20
2022-09-03T05:54:05.923Z,12.29
2022-09-03T05:57:17.631Z,12.24
2022-09-03T06:00:29.620Z,12.24
2022-09-03T06:03:41.454Z,12.49
2022-09-03T06:06:54.379Z,13.02
2022-09-03T06:24:29.675Z,14.88
2022-09-03T06:27:41.567Z,15.08
2022-09-03T06:30:53.217Z,15.35
2022-09-03T06:34:06.084Z,14.96
2022-09-03T06:37:17.666Z,14.88
2022-09-03T06:40:29.283Z,14.69
2022-09-03T06:43:43.221Z,14.78
2022-09-03T06:46:54.958Z,14.82
2022-09-03T06:50:07.184Z,14.85
2022-09-03T06:56:24.520Z,15.60
2022-09-03T06:59:36.471Z,15.74
2022-09-03T07:02:59.139Z,15.75
2022-09-03T07:09:18.938Z,15.82
2022-09-03T07:12:30.705Z,15.72
2022-09-03T07:19:41.250Z,16.31
2022-09-03T07:26:19.905Z,16.64
2022-09-03T07:32:43.071Z,16.98
2022-09-03T07:35:55.041Z,16.90
2022-09-03T07:39:18.140Z,17.31
2022-09-03T07:42:40.984Z,17.30
2022-09-03T08:00:03.678Z,16.91
2022-09-03T08:06:59.999Z,16.35
2022-09-03T08:10:13.590Z,16.33
2022-09-03T08:17:08.048Z,16.38
2022-09-03T08:20:29.727Z,16.23
2022-09-03T08:42:05.136Z,17.45
2022-09-03T08:45:22.645Z,17.42
2022-09-03T08:48:37.515Z,17.35
2022-09-03T08:51:52.122Z,17.31
2022-09-03T08:55:15.529Z,17.53
2022-09-03T09:08:40.477Z,17.39
2022-09-03T09:12:23.053Z,17.34
2022-09-03T09:52:09.007Z,16.68
2022-09-03T09:55:32.894Z,16.84
2022-09-03T09:58:56.252Z,16.81
2022-09-03T10:05:43.488Z,16.52
2022-09-03T10:12:44.920Z,16.91
2022-09-03T10:23:41.332Z,17.51
2022-09-03T10:27:04.023Z,17.72
2022-09-03T10:30:37.216Z,17.78
2022-09-03T10:37:13.656Z,18.17
2022-09-03T10:40:34.943Z,18.48
2022-09-03T10:44:41.799Z,18.40
2022-09-03T10:58:58.683Z,18.28
2022-09-03T11:02:47.265Z,17.93
2022-09-03T11:09:17.782Z,18.00
2022-09-03T11:12:47.058Z,17.75
2022-09-03T11:16:05.098Z,17.60
2022-09-03T11:22:23.398Z,18.00
2022-09-03T11:26:11.989Z,18.83
2022-09-03T11:29:46.104Z,19.38
2022-09-03T11:41:18.463Z,20.26
2022-09-03T11:44:44.321Z,20.46
2022-09-03T11:52:15.781Z,20.23
2022-09-03T11:55:43.772Z,20.35
2022-09-03T12:09:01.866Z,19.98
2022-09-03T12:12:28.056Z,20.72
2022-09-03T12:15:57.689Z,20.79
2022-09-03T12:19:14.565Z,20.35
2022-09-03T12:22:28.916Z,19.87
2022-09-03T12:25:40.752Z,19.52
2022-09-03T12:28:55.633Z,19.44
2022-09-03T12:32:18.639Z,19.12
2022-09-03T12:39:10.463Z,19.08
2022-09-03T12:42:09.173Z,19.06
2022-09-03T12:45:25.426Z,19.33
2022-09-03T12:48:40.454Z,19.44
2022-09-03T12:51:55.758Z,19.71
2022-09-03T12:55:12.841Z,19.67
2022-09-03T12:58:30.863Z,20.09
2022-09-03T13:01:49.351Z,20.06
2022-09-03T13:05:01.877Z,20.08
2022-09-03T13:08:18.584Z,20.24
2022-09-03T13:11:31.619Z,20.25
2022-09-03T13:14:53.272Z,20.02
2022-09-03T13:18:22.908Z,19.99
2022-09-03T13:21:46.124Z,20.14
2022-09-03T13:25:23.794Z,20.19
2022-09-03T13:28:47.413Z,20.47
2022-09-03T13:32:06.221Z,20.35
2022-09-03T13:35:22.353Z,20.27
2022-09-03T13:38:39.983Z,20.12
2022-09-03T13:41:57.186Z,20.23
2022-09-03T13:45:16.387Z,20.27
2022-09-03T13:48:47.386Z,20.17
2022-09-03T13:52:04.719Z,20.00
2022-09-03T13:55:23.418Z,19.97
2022-09-03T13:58:40.385Z,19.81
2022-09-03T14:02:18.699Z,19.67
2022-09-03T14:05:56.086Z,19.54
2022-09-03T14:09:19.177Z,19.34
2022-09-03T14:12:41.304Z,19.27
2022-09-03T14:15:59.613Z,19.16
2022-09-03T14:19:15.853Z,19.17
2022-09-03T14:22:28.749Z,19.07
2022-09-03T14:25:42.801Z,19.01
2022-09-03T14:29:03.787Z,19.05
2022-09-03T14:32:42.446Z,19.13
2022-09-03T14:36:13.247Z,19.13
2022-09-03T14:39:39.205Z,19.12
2022-09-03T14:43:06.778Z,19.09
2022-09-03T14:46:42.458Z,19.08
2022-09-03T14:50:10.138Z,18.96
2022-09-03T14:53:38.920Z,18.99
2022-09-03T14:57:02.362Z,18.93
2022-09-03T15:00:30.676Z,18.90
2022-09-03T15:04:42.049Z,18.87
2022-09-03T15:07:58.774Z,18.65
2022-09-03T15:11:17.814Z,18.57
2022-09-03T15:14:38.134Z,18.61
2022-09-03T15:18:04.985Z,18.69
2022-09-03T15:21:24.443Z,18.66
2022-09-03T15:24:45.527Z,18.63
2022-09-03T15:28:09.387Z,18.64
2022-09-03T15:31:26.233Z,18.64
2022-09-03T15:35:07.652Z,18.65
2022-09-03T15:38:25.184Z,18.54
2022-09-03T15:41:50.990Z,18.47
2022-09-03T15:45:10.067Z,18.45
2022-09-03T15:48:35.143Z,18.48
2022-09-03T15:51:54.986Z,18.40
2022-09-03T15:55:13.940Z,18.32
2022-09-03T15:58:33.274Z,18.32
2022-09-03T16:01:51.350Z,18.31
2022-09-03T16:05:16.335Z,18.30
2022-09-03T16:08:34.060Z,18.31
2022-09-03T16:11:52.903Z,18.26
2022-09-03T16:15:08.698Z,18.22
2022-09-03T16:18:27.503Z,18.17
2022-09-03T16:21:46.811Z,18.15
2022-09-03T16:25:05.485Z,18.14
2022-09-03T16:28:21.685Z,18.09
2022-09-03T16:31:50.771Z,18.11
2022-09-03T16:35:19.187Z,18.03
2022-09-03T16:38:45.771Z,17.98
2022-09-03T16:42:04.699Z,17.97
2022-09-03T16:45:31.662Z,17.97
2022-09-03T16:48:50.659Z,17.92
2022-09-03T16:52:09.707Z,17.86
2022-09-03T16:55:27.648Z,17.87
2022-09-03T16:58:46.341Z,17.83
2022-09-03T17:02:37.032Z,17.78
2022-09-03T17:05:50.290Z,17.69
2022-09-03T17:09:12.371Z,17.69
2022-09-03T17:12:30.509Z,17.65
2022-09-03T17:15:47.261Z,17.63
2022-09-03T17:19:06.103Z,17.59
2022-09-03T17:22:29.584Z,17.55
2022-09-03T17:25:45.132Z,17.49
2022-09-03T17:29:15.448Z,17.44
2022-09-03T17:32:40.297Z,17.42
2022-09-03T17:35:57.562Z,17.42
2022-09-03T17:39:45.795Z,17.34
2022-09-03T17:43:00.638Z,17.30
2022-09-03T17:46:25.186Z,17.22
2022-09-03T17:49:48.001Z,17.19
2022-09-03T17:53:03.088Z,17.19
2022-09-03T17:56:25.557Z,17.17
2022-09-03T17:59:46.143Z,17.12
2022-09-03T18:03:05.065Z,17.09
2022-09-03T18:06:25.426Z,17.05
2022-09-03T18:09:44.399Z,17.02
2022-09-03T18:13:03.996Z,16.95
2022-09-03T18:16:20.350Z,16.88
2022-09-03T18:19:55.802Z,16.83
2022-09-03T18:23:28.529Z,16.77
2022-09-03T18:27:02.110Z,16.71
2022-09-03T18:30:34.681Z,16.70
2022-09-03T18:34:01.678Z,16.64
2022-09-03T18:37:28.400Z,16.52
2022-09-03T18:41:00.865Z,16.44
2022-09-03T18:44:31.993Z,16.36
2022-09-03T18:48:15.323Z,16.29
2022-09-03T18:51:45.964Z,16.22
2022-09-03T18:55:23.240Z,16.14
2022-09-03T18:58:55.464Z,16.05
2022-09-03T19:02:27.174Z,16.00
2022-09-03T19:05:59.847Z,15.93
2022-09-03T19:09:33.589Z,15.89
2022-09-03T19:13:20.191Z,15.78
2022-09-03T19:16:56.240Z,15.69
2022-09-03T19:20:30.637Z,15.61
2022-09-03T19:23:56.849Z,15.57
2022-09-03T19:27:52.980Z,15.55
2022-09-03T19:31:04.308Z,15.49
2022-09-03T19:34:46.529Z,15.43
2022-09-03T19:38:22.901Z,15.38
2022-09-03T19:41:55.362Z,15.35
2022-09-03T19:45:29.762Z,15.32
2022-09-03T19:49:05.567Z,15.25
2022-09-03T19:52:38.815Z,15.24
2022-09-03T19:56:08.779Z,15.18
2022-09-03T19:59:40.262Z,15.11
2022-09-03T20:03:09.463Z,15.06
2022-09-03T20:06:37.676Z,14.92
2022-09-03T20:10:05.123Z,14.92
2022-09-03T20:13:17.232Z,14.88
2022-09-03T20:16:33.714Z,14.78
2022-09-03T20:19:57.494Z,14.80
2022-09-03T20:23:15.348Z,14.63
2022-09-03T20:26:36.932Z,14.66
2022-09-03T20:30:06.519Z,14.57
2022-09-03T20:33:54.848Z,14.51
2022-09-03T20:37:11.480Z,14.50
2022-09-03T20:40:33.427Z,14.45
2022-09-03T20:44:16.951Z,14.42
2022-09-03T20:48:01.272Z,14.37
2022-09-03T20:51:20.244Z,14.32
2022-09-03T20:54:36.104Z,14.27
2022-09-03T20:57:55.757Z,14.23
2022-09-03T21:01:13.706Z,14.22
2022-09-03T21:04:42.399Z,14.11
2022-09-03T21:08:04.563Z,14.08
2022-09-03T21:11:28.670Z,13.99
2022-09-03T21:14:45.164Z,13.87
2022-09-03T21:18:07.722Z,13.77
2022-09-03T21:21:26.121Z,13.69
2022-09-03T21:24:43.866Z,13.59
2022-09-03T21:28:00.781Z,13.60
2022-09-03T21:31:21.575Z,13.49
2022-09-03T21:34:40.925Z,13.42
2022-09-03T21:38:01.883Z,13.30
2022-09-03T21:41:23.349Z,13.32
2022-09-03T21:44:51.435Z,13.22
2022-09-03T21:48:09.745Z,13.07
2022-09-03T21:51:26.298Z,12.94
2022-09-03T21:54:39.726Z,13.08
2022-09-03T21:57:59.932Z,13.03
2022-09-03T22:01:16.469Z,12.93
2022-09-03T22:04:29.189Z,12.81
2022-09-03T22:07:59.782Z,12.73
2022-09-03T22:11:17.098Z,12.66
2022-09-03T22:14:28.083Z,12.68
2022-09-03T22:17:46.234Z,12.70
2022-09-03T22:21:08.169Z,12.73
2022-09-03T22:24:26.478Z,12.70
2022-09-03T22:27:46.278Z,12.72
2022-09-03T22:31:03.479Z,12.67
2022-09-03T22:34:33.959Z,12.68
2022-09-03T22:38:01.682Z,12.68
2022-09-03T22:41:31.144Z,12.65
2022-09-03T22:44:59.177Z,12.57
2022-09-03T22:48:19.120Z,12.59
2022-09-03T22:51:32.072Z,12.58
2022-09-03T22:54:59.158Z,12.49
2022-09-03T22:58:16.448Z,12.45
2022-09-03T23:01:34.965Z,12.38
2022-09-03T23:04:52.726Z,12.40
2022-09-03T23:08:10.002Z,12.42
2022-09-03T23:11:29.449Z,12.40
2022-09-03T23:14:48.823Z,12.39
2022-09-03T23:18:09.079Z,12.45
2022-09-03T23:21:30.769Z,12.45
2022-09-03T23:24:46.604Z,12.42
2022-09-03T23:28:03.042Z,12.41
2022-09-03T23:31:23.542Z,12.39
2022-09-03T23:34:35.685Z,12.34
2022-09-03T23:38:00.920Z,12.31
2022-09-03T23:41:17.841Z,12.33
2022-09-03T23:44:37.702Z,12.28
2022-09-03T23:47:54.450Z,12.26
2022-09-03T23:51:13.976Z,12.26
2022-09-03T23:54:33.972Z,12.22
2022-09-03T23:57:50.207Z,12.16
